Language: 


Des rapports , des résumés tant et plus, au choix de chacun....


Données statistiques de la station
Quotidien Rapport Mars 27, 2017 Unités:  Anglais    Métrique   les deux
« Précédent Jour
Suivant Jour »
Quotidien Hebdomadaire Mensuel Annuel Actuel
  Haut: Bas: Moyen:
Température: 69.6 °F 38.7 °F 53.4 °F
Pt de rosée: 45.3 °F 32.4 °F 39.4 °F
Humidité: 94 % 37 % 63 %
Vitesse du vent: 10.7 mph 0 mph 2.9 mph
Rafales: 10.7 mph - -
Vent:- - ESE
Pression: 30.2 in 30.1 in -
Précipitation: 0 in    
Historical Graphs
 
 
Données statistiques pour Mars 27, 2017
Heure Température Point de rosée Pression Vent Vitesse du vent Refales Humidité Pluie (taux horaire)
00:03 45.9 °F 40.1 °F 30.2 in NNE 3.4 mph 5.8 mph 80 % 0 in
00:08 45.9 °F 39.6 °F 30.2 in NE 2.7 mph 4.9 mph 79 % 0 in
00:13 45.7 °F 39.7 °F 30.2 in NNE 3.8 mph 6.3 mph 80 % 0 in
00:18 45.7 °F 40.1 °F 30.2 in North 6.3 mph 6.3 mph 81 % 0 in
00:23 45.1 °F 39.7 °F 30.2 in NNE 6 mph 6.3 mph 81 % 0 in
00:28 45.1 °F 39.7 °F 30.2 in NNE 3.4 mph 6.3 mph 81 % 0 in
00:33 45.1 °F 39.7 °F 30.2 in North 5.8 mph 5.8 mph 81 % 0 in
00:38 45.1 °F 39.7 °F 30.2 in NNE 2 mph 5.8 mph 81 % 0 in
00:43 45.3 °F 39.9 °F 30.2 in NNE 3.8 mph 5.4 mph 81 % 0 in
00:48 45.7 °F 40.5 °F 30.2 in NE 4.3 mph 5.8 mph 82 % 0 in
00:53 45.7 °F 40.5 °F 30.2 in NE 4.9 mph 6 mph 82 % 0 in
00:58 45.1 °F 40.1 °F 30.2 in NNE 4.9 mph 6.3 mph 82 % 0 in
01:04 45.1 °F 40.1 °F 30.2 in NNE 3.4 mph 6.3 mph 82 % 0 in
01:08 45.1 °F 39.7 °F 30.2 in NNE 1.1 mph 6.3 mph 81 % 0 in
01:13 45.1 °F 39.6 °F 30.2 in NNE 1.6 mph 4.7 mph 81 % 0 in
01:18 45.1 °F 39.6 °F 30.2 in NNE 6 mph 6 mph 81 % 0 in
01:24 45.1 °F 39.6 °F 30.2 in NNE 6 mph 6.3 mph 81 % 0 in
01:29 45 °F 39.7 °F 30.2 in NNE 5.8 mph 6.5 mph 82 % 0 in
01:34 44.4 °F 39.4 °F 30.2 in North 6 mph 7.2 mph 82 % 0 in
01:39 44.4 °F 39.4 °F 30.2 in NNE 4.3 mph 7.2 mph 82 % 0 in
01:44 44.2 °F 39.2 °F 30.2 in NNE 6.3 mph 6.3 mph 82 % 0 in
01:49 44.2 °F 39.4 °F 30.2 in NNE 4.3 mph 6.3 mph 83 % 0 in
01:54 44.2 °F 39.2 °F 30.2 in NNE 7.4 mph 7.4 mph 82 % 0 in
01:59 44.2 °F 39.2 °F 30.2 in North 5.4 mph 7.4 mph 82 % 0 in
02:04 44.2 °F 39.2 °F 30.2 in NE 5.8 mph 6.3 mph 82 % 0 in
02:09 44.2 °F 39.2 °F 30.2 in North 4.3 mph 6.5 mph 82 % 0 in
02:14 44.2 °F 39 °F 30.2 in North 4.3 mph 6.5 mph 82 % 0 in
02:19 44.1 °F 38.8 °F 30.2 in NNE 3.4 mph 6.3 mph 82 % 0 in
02:24 44.1 °F 38.8 °F 30.2 in NNE 4.7 mph 6 mph 82 % 0 in
02:29 44.1 °F 38.8 °F 30.2 in NE 5.8 mph 5.8 mph 82 % 0 in
02:34 43.9 °F 38.7 °F 30.2 in NNE 5.4 mph 6.7 mph 82 % 0 in
02:39 43.9 °F 39 °F 30.2 in NE 5.4 mph 6.7 mph 83 % 0 in
02:44 43.5 °F 38.8 °F 30.2 in North 3.8 mph 6.7 mph 83 % 0 in
02:49 43.5 °F 38.3 °F 30.2 in North 3.4 mph 6.5 mph 82 % 0 in
02:54 43.3 °F 38.1 °F 30.2 in Calm   4.3 mph 82 % 0 in
02:59 43.3 °F 38.1 °F 30.2 in Calm   3.4 mph 82 % 0 in
03:04 43.2 °F 37.9 °F 30.2 in Calm   2.9 mph 82 % 0 in
03:09 43.2 °F 37.9 °F 30.2 in Calm   3.8 mph 82 % 0 in
03:14 43.2 °F 37.9 °F 30.2 in NE 4 mph 5.8 mph 82 % 0 in
03:19 43.2 °F 38.3 °F 30.2 in NNE 4.3 mph 5.8 mph 83 % 0 in
03:24 43 °F 37.8 °F 30.2 in NNE 4 mph 5.8 mph 82 % 0 in
03:29 42.8 °F 37.9 °F 30.2 in NNE 2.9 mph 5.8 mph 83 % 0 in
03:34 42.6 °F 37.8 °F 30.2 in NNE 3.6 mph 5.6 mph 83 % 0 in
03:39 42.4 °F 37.6 °F 30.2 in NNE 3.1 mph 5.6 mph 83 % 0 in
03:44 42.3 °F 37.4 °F 30.2 in North 3.4 mph 6 mph 83 % 0 in
03:49 42.1 °F 37.6 °F 30.2 in NNE 3.1 mph 6 mph 84 % 0 in
03:54 42.1 °F 37.6 °F 30.1 in NNE 3.1 mph 5.8 mph 84 % 0 in
03:59 42.1 °F 37.6 °F 30.1 in North 4.3 mph 5.8 mph 84 % 0 in
04:04 42.1 °F 37.6 °F 30.1 in North 3.6 mph 5.8 mph 84 % 0 in
04:09 42.3 °F 37.9 °F 30.2 in NNE 3.8 mph 5.6 mph 85 % 0 in
04:14 42.3 °F 37.9 °F 30.2 in NNE 4.9 mph 6 mph 85 % 0 in
04:19 42.1 °F 37.9 °F 30.2 in NNE 3.6 mph 6 mph 85 % 0 in
04:24 41.9 °F 37.8 °F 30.2 in NNE 4.3 mph 6 mph 85 % 0 in
04:29 41.7 °F 37.6 °F 30.2 in NNE 3.4 mph 5.6 mph 85 % 0 in
04:34 41.5 °F 37.4 °F 30.2 in NNE 4.3 mph 5.4 mph 85 % 0 in
04:39 41.5 °F 37.4 °F 30.2 in NE 3.8 mph 4.7 mph 85 % 0 in
04:44 41.4 °F 37.6 °F 30.2 in NNE 3.4 mph 4.7 mph 86 % 0 in
04:49 41.4 °F 37.6 °F 30.2 in NNE 4.3 mph 4.9 mph 86 % 0 in
04:54 41.4 °F 37.6 °F 30.2 in NNE 3.6 mph 5.6 mph 86 % 0 in
05:00 41.4 °F 37.6 °F 30.2 in North 2.7 mph 5.8 mph 86 % 0 in
05:05 41.4 °F 37.8 °F 30.2 in NNE 3.6 mph 5.8 mph 87 % 0 in
05:10 41.4 °F 37.8 °F 30.2 in North 4.3 mph 6.5 mph 87 % 0 in
05:15 41.4 °F 37.8 °F 30.2 in North 4 mph 6.5 mph 87 % 0 in
05:20 41.2 °F 37.6 °F 30.2 in NE 5.4 mph 5.6 mph 87 % 0 in
05:25 41 °F 37.4 °F 30.2 in NNE 4 mph 5.6 mph 87 % 0 in
05:30 40.8 °F 37.2 °F 30.2 in NNE 3.6 mph 5.6 mph 87 % 0 in
05:35 40.8 °F 37.2 °F 30.2 in North 3.6 mph 5.8 mph 87 % 0 in
05:40 40.8 °F 37.2 °F 30.2 in NE 4.7 mph 6 mph 87 % 0 in
05:45 40.8 °F 37.2 °F 30.2 in NNE 3.8 mph 6.5 mph 87 % 0 in
05:50 41 °F 37.4 °F 30.2 in North 3.6 mph 6.5 mph 87 % 0 in
05:55 41 °F 37.8 °F 30.2 in North 6 mph 6 mph 88 % 0 in
06:00 40.8 °F 37.6 °F 30.2 in NNE 4 mph 6 mph 88 % 0 in
06:05 40.6 °F 37.4 °F 30.2 in NNE 3.1 mph 6.3 mph 88 % 0 in
06:10 40.5 °F 37.2 °F 30.2 in NNE 3.1 mph 6.3 mph 88 % 0 in
06:15 40.3 °F 37 °F 30.2 in NNE 3.8 mph 5.6 mph 88 % 0 in
06:20 40.5 °F 37.2 °F 30.2 in NNE 2.9 mph 5.8 mph 88 % 0 in
06:25 40.5 °F 37.6 °F 30.2 in NE 3.1 mph 5.8 mph 89 % 0 in
06:30 40.5 °F 37.6 °F 30.2 in NNE 4.9 mph 6 mph 89 % 0 in
06:35 40.3 °F 37.2 °F 30.2 in NNW 4.9 mph 6 mph 89 % 0 in
06:40 40.3 °F 37.2 °F 30.2 in North 4.3 mph 6 mph 89 % 0 in
06:45 40.1 °F 37 °F 30.2 in NNE 3.8 mph 6 mph 89 % 0 in
06:50 39.9 °F 37 °F 30.2 in North 4.3 mph 6.5 mph 89 % 0 in
06:55 39.7 °F 36.9 °F 30.2 in NNE 3.4 mph 6.5 mph 89 % 0 in
07:00 39.6 °F 36.7 °F 30.2 in NNE 2.9 mph 5.8 mph 89 % 0 in
07:05 39.4 °F 36.3 °F 30.2 in ENE 3.4 mph 4.7 mph 89 % 0 in
07:10 39.2 °F 36.3 °F 30.2 in NNE 4 mph 4.7 mph 89 % 0 in
07:15 39.2 °F 36.5 °F 30.2 in NNE 3.6 mph 4.7 mph 90 % 0 in
07:20 39.2 °F 36.5 °F 30.2 in North 2.7 mph 4.5 mph 90 % 0 in
07:25 39.2 °F 36.9 °F 30.2 in NNE 3.4 mph 4 mph 91 % 0 in
07:30 39 °F 36.7 °F 30.2 in NE 3.8 mph 4.3 mph 91 % 0 in
07:35 39 °F 36.7 °F 30.2 in NNE 4.3 mph 5.4 mph 91 % 0 in
07:40 38.8 °F 36.5 °F 30.2 in NNE 4.3 mph 5.4 mph 91 % 0 in
07:45 38.8 °F 36.5 °F 30.2 in NE 3.4 mph 4.9 mph 91 % 0 in
07:50 38.8 °F 36.9 °F 30.2 in North 2.9 mph 6 mph 92 % 0 in
07:55 38.7 °F 36.7 °F 30.2 in NNE 3.6 mph 6 mph 92 % 0 in
08:00 38.8 °F 36.9 °F 30.2 in NNE 3.8 mph 4.9 mph 92 % 0 in
08:05 38.8 °F 36.9 °F 30.2 in North 4.9 mph 4.9 mph 92 % 0 in
08:10 39 °F 36.9 °F 30.1 in NNE 2.9 mph 4.9 mph 92 % 0 in
08:15 39.2 °F 37 °F 30.1 in North 3.4 mph 4 mph 92 % 0 in
08:20 39.4 °F 37.6 °F 30.1 in NNE 4 mph 5.4 mph 93 % 0 in
08:25 39.6 °F 37.8 °F 30.2 in NNE 4.3 mph 5.6 mph 93 % 0 in
08:30 39.9 °F 38.1 °F 30.2 in NNE 3.6 mph 5.6 mph 93 % 0 in
08:36 40.3 °F 38.5 °F 30.2 in NE 4.3 mph 4.9 mph 93 % 0 in
08:41 40.6 °F 38.8 °F 30.2 in NNE 3.6 mph 4.9 mph 93 % 0 in
08:45 41 °F 39 °F 30.2 in North 3.1 mph 4.9 mph 93 % 0 in
08:51 41.5 °F 39.7 °F 30.2 in North 2.9 mph 4.3 mph 93 % 0 in
08:56 42.3 °F 40.5 °F 30.2 in Calm   3.6 mph 93 % 0 in
09:01 43.3 °F 41.7 °F 30.2 in NE 4 mph 4.3 mph 94 % 0 in
09:06 44.2 °F 42.6 °F 30.2 in ENE 3.6 mph 4.7 mph 94 % 0 in
09:11 45 °F 42.6 °F 30.2 in East 3.8 mph 5.6 mph 92 % 0 in
09:16 45.3 °F 43.2 °F 30.2 in ENE 3.6 mph 5.6 mph 92 % 0 in
09:21 45.9 °F 43.5 °F 30.2 in ENE 2.9 mph 5.6 mph 91 % 0 in
09:26 46.8 °F 44.1 °F 30.2 in East 2.5 mph 5.6 mph 90 % 0 in
09:31 47.5 °F 44.4 °F 30.2 in ENE 2.5 mph 4.3 mph 89 % 0 in
09:36 48 °F 44.8 °F 30.2 in ENE 2 mph 3.4 mph 88 % 0 in
09:41 48.4 °F 44.4 °F 30.2 in NE 2.7 mph 3.4 mph 86 % 0 in
09:46 49.1 °F 44.8 °F 30.2 in NE 3.1 mph 3.8 mph 85 % 0 in
09:51 49.6 °F 45 °F 30.2 in NE 3.6 mph 3.8 mph 84 % 0 in
09:56 50.2 °F 45.1 °F 30.2 in East 3.4 mph 3.8 mph 83 % 0 in
10:01 51.1 °F 45.3 °F 30.2 in East 3.8 mph 4.3 mph 81 % 0 in
10:06 51.8 °F 45.1 °F 30.2 in East 2.7 mph 4.3 mph 78 % 0 in
10:11 52.3 °F 45.3 °F 30.2 in East 7.8 mph 7.8 mph 77 % 0 in
10:16 52.5 °F 44.4 °F 30.2 in ESE 4.3 mph 7.8 mph 74 % 0 in
10:21 53.1 °F 44.6 °F 30.2 in East 3.1 mph 7.8 mph 73 % 0 in
10:26 53.8 °F 45 °F 30.2 in ESE 5.6 mph 5.8 mph 72 % 0 in
10:31 54.1 °F 44.8 °F 30.2 in East 5.6 mph 6 mph 70 % 0 in
10:36 54.9 °F 44.1 °F 30.2 in ESE 4.7 mph 6.3 mph 67 % 0 in
10:41 55.6 °F 44.8 °F 30.2 in ESE 6.5 mph 7.4 mph 67 % 0 in
10:46 55.9 °F 43.5 °F 30.2 in ENE 6 mph 7.6 mph 63 % 0 in
10:51 56.5 °F 43.2 °F 30.2 in East 5.4 mph 8.1 mph 61 % 0 in
10:56 56.8 °F 42.6 °F 30.2 in East 6 mph 8.1 mph 59 % 0 in
11:01 57.6 °F 43.9 °F 30.2 in SSE 3.8 mph 6.5 mph 60 % 0 in
11:06 58.1 °F 43.3 °F 30.2 in SE 4.7 mph 7.8 mph 58 % 0 in
11:11 58.6 °F 43 °F 30.2 in ESE 8.1 mph 8.1 mph 56 % 0 in
11:16 59 °F 41.9 °F 30.2 in Calm   8.1 mph 53 % 0 in
11:21 59.5 °F 42.4 °F 30.2 in East 4.3 mph 7.8 mph 53 % 0 in
11:26 60.1 °F 43 °F 30.2 in SSE 5.6 mph 6.5 mph 53 % 0 in
11:31 60.6 °F 42.3 °F 30.2 in ESE 3.1 mph 6.5 mph 51 % 0 in
11:36 61.3 °F 43 °F 30.2 in Calm   6 mph 51 % 0 in
11:41 61.5 °F 42.8 °F 30.2 in Calm   5.6 mph 50 % 0 in
11:46 62.2 °F 43.3 °F 30.2 in South 0.9 mph 5.6 mph 50 % 0 in
11:51 63 °F 43.3 °F 30.2 in Calm   4.3 mph 49 % 0 in
11:56 63.7 °F 44.1 °F 30.2 in SSW 1.3 mph 4.3 mph 49 % 0 in
12:01 63.7 °F 43.5 °F 30.2 in Calm   4.3 mph 48 % 0 in
12:06 64.2 °F 44.2 °F 30.2 in South 2.7 mph 3.6 mph 48 % 0 in
12:11 64.8 °F 44.1 °F 30.2 in Calm   2.7 mph 47 % 0 in
12:16 64.9 °F 43.7 °F 30.2 in Calm   2 mph 46 % 0 in
12:21 65.5 °F 43.5 °F 30.2 in Calm   1.1 mph 45 % 0 in
12:26 65.8 °F 43.9 °F 30.1 in Calm     45 % 0 in
12:31 65.8 °F 43.9 °F 30.1 in Calm     45 % 0 in
12:36 65.7 °F 43.9 °F 30.1 in Calm   3.1 mph 45 % 0 in
12:41 65.5 °F 43 °F 30.1 in Calm   4.3 mph 44 % 0 in
12:42 65.7 °F 43.2 °F 30.1 in ENE 3.8 mph 4.3 mph 44 % 0 in
12:47 65.5 °F 43 °F 30.1 in Calm   5.4 mph 44 % 0 in
12:52 65.8 °F 42.6 °F 30.2 in Calm   5.4 mph 43 % 0 in
12:57 66.4 °F 43.9 °F 30.2 in Calm   4.5 mph 44 % 0 in
13:02 66.4 °F 43.9 °F 30.2 in Calm   4.3 mph 44 % 0 in
13:07 66.2 °F 43.7 °F 30.2 in ENE 5.6 mph 6 mph 44 % 0 in
13:12 65.7 °F 42.6 °F 30.2 in Calm   8.7 mph 43 % 0 in
13:17 65.8 °F 42.6 °F 30.2 in ENE 1.6 mph 8.7 mph 43 % 0 in
13:22 65.8 °F 42.6 °F 30.2 in Calm   8.1 mph 43 % 0 in
13:23 66 °F 43 °F 30.2 in Calm   8.1 mph 43 % 0 in
13:28 66 °F 43 °F 30.2 in ENE 5.8 mph 8.1 mph 43 % 0 in
13:33 66.4 °F 42.6 °F 30.2 in ESE 5.8 mph 6.9 mph 42 % 0 in
13:38 66.7 °F 43.5 °F 30.2 in Calm   6.3 mph 43 % 0 in
13:43 66.7 °F 43 °F 30.2 in East 0.9 mph 6.3 mph 42 % 0 in
13:48 66.9 °F 43.2 °F 30.2 in SSE 7.6 mph 8.1 mph 42 % 0 in
13:53 66.7 °F 42.3 °F 30.2 in ESE 10.5 mph 10.5 mph 41 % 0 in
13:58 66.7 °F 41.5 °F 30.2 in SE 8.1 mph 10.5 mph 40 % 0 in
14:03 66.9 °F 41.7 °F 30.2 in ENE 6.3 mph 9.8 mph 40 % 0 in
14:08 67.3 °F 42.1 °F 30.2 in ENE 3.6 mph 9.8 mph 40 % 0 in
14:14 66.9 °F 41.7 °F 30.2 in SE 2.9 mph 10.1 mph 40 % 0 in
14:19 66.9 °F 41.7 °F 30.2 in SE 7.2 mph 10.1 mph 40 % 0 in
14:24 67.6 °F 41.7 °F 30.1 in ESE 4.9 mph 9.4 mph 39 % 0 in
14:29 67.8 °F 41.9 °F 30.1 in ESE 6.9 mph 8.5 mph 39 % 0 in
14:34 68.2 °F 42.3 °F 30.1 in Calm   7.8 mph 39 % 0 in
14:39 68.5 °F 42.6 °F 30.1 in SE 3.6 mph 10.3 mph 39 % 0 in
14:44 68.7 °F 42.1 °F 30.1 in South 3.6 mph 10.3 mph 38 % 0 in
14:49 68.5 °F 42.6 °F 30.1 in ESE 6 mph 7.4 mph 39 % 0 in
14:54 68.7 °F 42.6 °F 30.1 in ESE 2.2 mph 6.5 mph 39 % 0 in
14:59 68.5 °F 42.6 °F 30.1 in ENE 2.7 mph 6.5 mph 39 % 0 in
15:04 68.7 °F 42.6 °F 30.1 in ENE 6 mph 8.1 mph 39 % 0 in
15:09 68.2 °F 42.3 °F 30.1 in ENE 6.5 mph 8.7 mph 39 % 0 in
15:14 68 °F 42.1 °F 30.1 in Calm   8.7 mph 39 % 0 in
15:19 67.8 °F 41.9 °F 30.1 in ESE 6.7 mph 8.7 mph 39 % 0 in
15:24 68.2 °F 42.3 °F 30.1 in East 4 mph 8.7 mph 39 % 0 in
15:29 68 °F 42.1 °F 30.1 in East 6.5 mph 8.5 mph 39 % 0 in
15:34 68.2 °F 42.3 °F 30.1 in ESE 1.1 mph 8.5 mph 39 % 0 in
15:39 68.4 °F 42.4 °F 30.1 in SE 5.6 mph 7.6 mph 39 % 0 in
15:44 68.5 °F 41.9 °F 30.1 in SSE 3.4 mph 7.4 mph 38 % 0 in
15:49 68.4 °F 41.7 °F 30.1 in ESE 6.7 mph 7.6 mph 38 % 0 in
15:54 68.2 °F 41.5 °F 30.1 in ESE 5.8 mph 9.8 mph 38 % 0 in
15:59 68.9 °F 42.3 °F 30.1 in Calm   9.8 mph 38 % 0 in
16:04 69.1 °F 42.4 °F 30.1 in SSE 7.6 mph 7.6 mph 38 % 0 in
16:09 68 °F 41.4 °F 30.1 in SE 8.1 mph 10.5 mph 38 % 0 in
16:14 68.4 °F 42.4 °F 30.1 in SSE 3.8 mph 10.5 mph 39 % 0 in
16:19 69.1 °F 42.4 °F 30.1 in ESE 5.4 mph 7.8 mph 38 % 0 in
16:24 69.3 °F 43.2 °F 30.1 in South 7.6 mph 7.6 mph 39 % 0 in
16:29 69.4 °F 42.6 °F 30.1 in SSE 3.1 mph 7.6 mph 38 % 0 in
16:34 69.6 °F 42.8 °F 30.1 in SSW 3.4 mph 7.6 mph 38 % 0 in
16:39 69.6 °F 42.8 °F 30.1 in Calm   6.3 mph 38 % 0 in
16:44 69.3 °F 42.4 °F 30.1 in Calm   6.5 mph 38 % 0 in
16:49 69.1 °F 41.7 °F 30.1 in SE 10.7 mph 10.7 mph 37 % 0 in
16:54 68.9 °F 42.3 °F 30.1 in Calm   10.7 mph 38 % 0 in
16:59 68.7 °F 42.1 °F 30.1 in South 5.8 mph 10.7 mph 38 % 0 in
17:04 68.7 °F 41.4 °F 30.1 in South 6 mph 7.8 mph 37 % 0 in
17:09 68.9 °F 42.3 °F 30.1 in SSE 5.4 mph 7.8 mph 38 % 0 in
17:14 68.7 °F 41.4 °F 30.1 in South 5.4 mph 8.7 mph 37 % 0 in
17:19 68.5 °F 41.2 °F 30.1 in SSW 4 mph 9.4 mph 37 % 0 in
17:24 68.4 °F 41 °F 30.1 in Calm   9.4 mph 37 % 0 in
17:29 68.4 °F 41 °F 30.1 in ESE 4.3 mph 7.8 mph 37 % 0 in
17:34 68.2 °F 40.8 °F 30.1 in South 5.6 mph 7.8 mph 37 % 0 in
17:39 67.8 °F 40.6 °F 30.1 in South 6.7 mph 8.5 mph 37 % 0 in
17:44 67.8 °F 40.6 °F 30.1 in South 3.8 mph 8.5 mph 37 % 0 in
17:45 67.8 °F 40.6 °F 30.1 in SSE 2 mph 8.5 mph 37 % 0 in
17:50 68.2 °F 40.8 °F 30.1 in SSE 5.8 mph 7.4 mph 37 % 0 in
17:55 68 °F 40.6 °F 30.1 in South 2.7 mph 7.4 mph 37 % 0 in
18:00 68 °F 40.6 °F 30.1 in Calm   5.4 mph 37 % 0 in
18:05 67.8 °F 40.6 °F 30.1 in SSE 5.4 mph 5.8 mph 37 % 0 in
18:10 67.6 °F 40.5 °F 30.1 in SSW 4 mph 6.3 mph 37 % 0 in
18:15 67.6 °F 40.5 °F 30.1 in Calm   6.3 mph 37 % 0 in
18:20 67.5 °F 40.3 °F 30.1 in Calm   4.3 mph 37 % 0 in
18:25 67.5 °F 40.8 °F 30.1 in SSE 3.1 mph 5.4 mph 38 % 0 in
18:26 67.5 °F 40.8 °F 30.1 in SSW 4 mph 5.4 mph 38 % 0 in
18:31 67.1 °F 40.6 °F 30.1 in SSE 4.3 mph 6.5 mph 38 % 0 in
18:36 66.7 °F 40.3 °F 30.1 in SSE 2.7 mph 6.5 mph 38 % 0 in
18:41 66.6 °F 40.3 °F 30.1 in SE 4.3 mph 5.8 mph 38 % 0 in
18:46 66.2 °F 39.7 °F 30.1 in Calm   5.8 mph 38 % 0 in
18:51 65.8 °F 39.6 °F 30.1 in SE 4.3 mph 5.4 mph 38 % 0 in
18:56 65.5 °F 39.2 °F 30.1 in Calm   5.4 mph 38 % 0 in
19:01 65.1 °F 39.6 °F 30.1 in Calm   4 mph 39 % 0 in
19:06 64.8 °F 39.4 °F 30.1 in Calm   4 mph 39 % 0 in
19:08 64.8 °F 39.4 °F 30.1 in SSE 3.1 mph 4 mph 39 % 0 in
19:13 64.6 °F 38.8 °F 30.1 in SSE 4.3 mph 4.3 mph 39 % 0 in
19:18 64 °F 38.7 °F 30.1 in Calm   4.3 mph 39 % 0 in
19:23 63.9 °F 38.3 °F 30.1 in Calm   4.3 mph 39 % 0 in
19:28 63.1 °F 37.8 °F 30.1 in Calm   3.1 mph 39 % 0 in
19:33 63 °F 37.6 °F 30.1 in SSE 2.9 mph 3.1 mph 39 % 0 in
19:38 62.2 °F 36.9 °F 30.1 in Calm   4 mph 39 % 0 in
19:43 61.5 °F 37 °F 30.1 in Calm   4 mph 40 % 0 in
19:48 61.3 °F 36.7 °F 30.1 in Calm   1.1 mph 40 % 0 in
19:53 60.8 °F 36.3 °F 30.1 in Calm   1.1 mph 40 % 0 in
19:58 60.1 °F 35.6 °F 30.1 in Calm     40 % 0 in
20:03 59.5 °F 35.8 °F 30.1 in Calm     41 % 0 in
20:08 58.5 °F 34.9 °F 30.1 in Calm     41 % 0 in
20:13 57.6 °F 34 °F 30.1 in Calm     41 % 0 in
20:18 56.8 °F 34 °F 30.1 in Calm     42 % 0 in
20:23 56.1 °F 33.4 °F 30.1 in Calm   0.9 mph 42 % 0 in
20:28 55.6 °F 33.3 °F 30.1 in Calm   0.9 mph 43 % 0 in
20:33 55.2 °F 33.3 °F 30.1 in Calm   1.1 mph 43 % 0 in
20:38 54.9 °F 33.3 °F 30.1 in Calm   1.1 mph 44 % 0 in
20:43 54.1 °F 33.3 °F 30.1 in Calm     45 % 0 in
20:48 54 °F 33.1 °F 30.1 in Calm   0.9 mph 45 % 0 in
20:53 53.2 °F 33.1 °F 30.1 in Calm   0.9 mph 46 % 0 in
20:58 52.5 °F 33.1 °F 30.1 in Calm     47 % 0 in
21:03 52.2 °F 32.5 °F 30.1 in Calm     47 % 0 in
21:08 51.4 °F 32.4 °F 30.1 in Calm     48 % 0 in
21:13 51.1 °F 32.5 °F 30.1 in Calm     49 % 0 in
21:18 50.9 °F 32.9 °F 30.1 in Calm     50 % 0 in
21:23 50.7 °F 33.3 °F 30.1 in Calm     51 % 0 in
21:28 50.2 °F 33.6 °F 30.1 in Calm     53 % 0 in
21:29 50.2 °F 33.6 °F 30.1 in Calm     53 % 0 in
21:33 50 °F 34 °F 30.1 in Calm     54 % 0 in
21:35 50 °F 34 °F 30.1 in Calm     54 % 0 in
21:36 50 °F 34 °F 30.1 in Calm     54 % 0 in
21:38 50 °F 34.3 °F 30.1 in Calm     55 % 0 in
21:40 50 °F 34.3 °F 30.1 in Calm     55 % 0 in
21:45 49.8 °F 34.7 °F 30.1 in Calm     56 % 0 in
21:49 49.8 °F 35.2 °F 30.1 in Calm     57 % 0 in
21:51 49.8 °F 35.2 °F 30.1 in Calm     57 % 0 in
21:53 49.6 °F 35.1 °F 30.1 in Calm     57 % 0 in
21:56 49.6 °F 35.1 °F 30.1 in Calm     57 % 0 in
21:59 49.3 °F 35.1 °F 30.1 in Calm     58 % 0 in
22:04 49.1 °F 35.1 °F 30.1 in Calm     58 % 0 in
22:09 48.9 °F 35.2 °F 30.1 in Calm     59 % 0 in
22:14 49.1 °F 35.4 °F 30.1 in Calm     59 % 0 in
22:19 49.3 °F 35.6 °F 30.1 in Calm     59 % 0 in
22:24 49.3 °F 36 °F 30.1 in North 1.1 mph 1.1 mph 60 % 0 in
22:29 49.3 °F 36 °F 30.1 in North 2.9 mph 3.1 mph 60 % 0 in
22:34 49.1 °F 35.8 °F 30.1 in Calm   3.1 mph 60 % 0 in
22:39 49.1 °F 35.8 °F 30.1 in Calm   3.1 mph 60 % 0 in
22:44 48.9 °F 35.6 °F 30.1 in NNE 3.8 mph 3.8 mph 60 % 0 in
22:49 48.7 °F 36.3 °F 30.1 in Calm   3.8 mph 62 % 0 in
22:54 48.6 °F 36.5 °F 30.1 in NE 2.7 mph 4.3 mph 63 % 0 in
22:59 48.4 °F 36.9 °F 30.1 in Calm   4.3 mph 64 % 0 in
23:04 48.4 °F 36.9 °F 30.1 in Calm   3.4 mph 64 % 0 in
23:09 48.2 °F 37 °F 30.1 in Calm   3.1 mph 65 % 0 in
23:14 47.8 °F 36.7 °F 30.1 in Calm   3.1 mph 65 % 0 in
23:19 47.5 °F 36.3 °F 30.1 in Calm   2.5 mph 65 % 0 in
23:24 47.3 °F 36.7 °F 30.1 in Calm     66 % 0 in
23:29 46.9 °F 36.1 °F 30.1 in NNE 1.6 mph 1.6 mph 66 % 0 in
23:34 46.8 °F 36.1 °F 30.1 in Calm   1.6 mph 66 % 0 in
23:39 46.6 °F 36.3 °F 30.1 in Calm   2.7 mph 67 % 0 in
23:44 46.6 °F 36.1 °F 30.1 in Calm   2.7 mph 67 % 0 in
23:49 46 °F 36.1 °F 30.1 in Calm   1.3 mph 68 % 0 in
23:54 46 °F 36.1 °F 30.1 in Calm     68 % 0 in
23:59 45.9 °F 36.3 °F 30.1 in Calm     69 % 0 in
Le Gheer Warneton
Courtoisie de Weather Underground - 2.25 mb

Mise a jour : 16-12-17 12:12:11
Généré par Cumulus 1.9.4 (1099)